createdAt,value
2017-07-21T00:00:16.365Z,100878.34
2017-07-21T00:02:48.797Z,100887.36
2017-07-21T00:05:21.232Z,100894.70
2017-07-21T00:07:53.621Z,100889.16
2017-07-21T00:10:25.944Z,100895.63
2017-07-21T00:12:58.318Z,100900.17
2017-07-21T00:15:30.765Z,100897.45
2017-07-21T00:18:03.172Z,100890.98
2017-07-21T00:20:35.554Z,100894.45
2017-07-21T00:23:08.095Z,100899.55
2017-07-21T00:25:40.375Z,100892.38
2017-07-21T00:28:12.745Z,100894.19
2017-07-21T00:30:45.107Z,100898.15
2017-07-21T00:33:17.491Z,100895.16
2017-07-21T00:35:50.237Z,100890.80
2017-07-21T00:38:22.209Z,100891.06
2017-07-21T00:40:54.780Z,100894.70
2017-07-21T00:43:27.045Z,100895.50
2017-07-21T00:45:59.428Z,100897.70
2017-07-21T00:48:31.824Z,100889.20
2017-07-21T00:51:04.142Z,100899.66
2017-07-21T00:53:36.470Z,100904.93
2017-07-21T00:56:08.878Z,100908.27
2017-07-21T00:58:41.182Z,100915.73
2017-07-21T01:01:13.570Z,100914.66
2017-07-21T01:03:45.962Z,100912.50
2017-07-21T01:06:18.356Z,100914.06
2017-07-21T01:08:50.804Z,100911.02
2017-07-21T01:11:23.162Z,100906.83
2017-07-21T01:13:55.601Z,100914.81
2017-07-21T01:16:28.005Z,100914.03
2017-07-21T01:19:00.424Z,100914.84
2017-07-21T01:21:32.741Z,100910.39
2017-07-21T01:24:05.166Z,100906.91
2017-07-21T01:26:37.617Z,100908.44
2017-07-21T01:29:10.100Z,100912.36
2017-07-21T01:31:42.458Z,100909.83
2017-07-21T01:34:15.041Z,100913.72
2017-07-21T01:36:47.322Z,100916.06
2017-07-21T01:39:19.806Z,100921.53
2017-07-21T01:41:52.393Z,100927.63
2017-07-21T01:44:24.777Z,100925.63
2017-07-21T01:46:57.201Z,100925.81
2017-07-21T01:49:29.625Z,100934.32
2017-07-21T01:52:02.079Z,100932.49
2017-07-21T01:54:34.517Z,100934.31
2017-07-21T01:57:06.897Z,100932.13
2017-07-21T01:59:39.286Z,100933.45
2017-07-21T02:02:11.682Z,100942.17
2017-07-21T02:04:44.070Z,100933.76
2017-07-21T02:07:16.513Z,100944.60
2017-07-21T02:09:48.962Z,100940.62
2017-07-21T02:12:21.344Z,100948.94
2017-07-21T02:14:53.769Z,100946.47
2017-07-21T02:17:26.104Z,100949.55
2017-07-21T02:19:58.556Z,100942.48
2017-07-21T02:22:30.849Z,100950.20
2017-07-21T02:25:03.236Z,100950.99
2017-07-21T02:27:35.565Z,100958.70
2017-07-21T02:30:07.885Z,100958.34
2017-07-21T02:32:40.166Z,100954.56
2017-07-21T02:35:12.517Z,100954.77
2017-07-21T02:37:44.968Z,100953.31
2017-07-21T02:40:17.285Z,100955.94
2017-07-21T02:42:49.624Z,100956.48
2017-07-21T02:45:21.996Z,100961.28
2017-07-21T02:47:54.374Z,100962.48
2017-07-21T02:50:26.751Z,100964.03
2017-07-21T02:52:59.058Z,100966.75
2017-07-21T02:55:31.505Z,100966.48
2017-07-21T02:58:03.885Z,100966.77
2017-07-21T03:00:36.153Z,100963.73
2017-07-21T03:03:08.420Z,100965.03
2017-07-21T03:05:40.857Z,100963.73
2017-07-21T03:08:13.184Z,100958.98
2017-07-21T03:10:45.636Z,100961.86
2017-07-21T03:13:18.285Z,100963.88
2017-07-21T03:15:50.794Z,100960.76
2017-07-21T03:18:23.184Z,100967.00
2017-07-21T03:20:55.605Z,100972.67
2017-07-21T03:23:28.032Z,100972.19
2017-07-21T03:26:00.337Z,100970.34
2017-07-21T03:28:32.574Z,100972.27
2017-07-21T03:31:05.033Z,100966.83
2017-07-21T03:33:37.321Z,100965.98
2017-07-21T03:36:09.721Z,100967.77
2017-07-21T03:38:41.965Z,100973.91
2017-07-21T03:41:14.337Z,100974.51
2017-07-21T03:43:46.794Z,100979.65
2017-07-21T03:46:19.202Z,100980.95
2017-07-21T03:48:51.457Z,100983.58
2017-07-21T03:51:24.100Z,100988.66
2017-07-21T03:53:56.482Z,100987.28
2017-07-21T03:56:28.892Z,100987.00
2017-07-21T03:59:01.254Z,100991.48
2017-07-21T04:01:33.680Z,100995.09
2017-07-21T04:04:06.053Z,100996.70
2017-07-21T04:06:38.466Z,101002.45
2017-07-21T04:09:10.842Z,101004.38
2017-07-21T04:11:43.179Z,101004.35
2017-07-21T04:14:15.554Z,101007.39
2017-07-21T04:16:47.904Z,101003.92
2017-07-21T04:19:20.133Z,101011.06
2017-07-21T04:21:52.402Z,101007.66
2017-07-21T04:24:24.767Z,101007.34
2017-07-21T04:26:57.046Z,101015.36
2017-07-21T04:29:29.394Z,101010.30
2017-07-21T04:32:01.774Z,101013.88
2017-07-21T04:34:34.047Z,101011.04
2017-07-21T04:37:06.332Z,101006.92
2017-07-21T04:39:38.774Z,101005.17
2017-07-21T04:42:11.204Z,101002.10
2017-07-21T04:44:43.466Z,100998.90
2017-07-21T04:47:15.912Z,101005.52
2017-07-21T04:49:48.422Z,101003.81
2017-07-21T04:52:20.785Z,100998.66
2017-07-21T04:54:53.266Z,101011.55
2017-07-21T04:57:26.857Z,101013.29
2017-07-21T04:59:59.066Z,101017.17
2017-07-21T05:02:31.508Z,101023.42
2017-07-21T05:05:03.950Z,101019.58
2017-07-21T05:07:36.357Z,101019.14
2017-07-21T05:10:08.709Z,101023.33
2017-07-21T05:12:41.211Z,101030.63
2017-07-21T05:15:13.876Z,101034.02
2017-07-21T05:17:46.065Z,101035.66
2017-07-21T05:20:18.412Z,101042.16
2017-07-21T05:22:50.847Z,101051.70
2017-07-21T05:25:23.201Z,101034.48
2017-07-21T05:27:55.949Z,101039.27
2017-07-21T05:30:28.100Z,101043.05
2017-07-21T05:33:00.498Z,101040.52
2017-07-21T05:35:32.925Z,101036.47
2017-07-21T05:38:05.469Z,101039.24
2017-07-21T05:40:37.910Z,101035.70
2017-07-21T05:43:10.597Z,101041.83
2017-07-21T05:45:42.652Z,101038.31
2017-07-21T05:48:15.156Z,101042.78
2017-07-21T05:50:47.532Z,101043.16
2017-07-21T05:53:20.015Z,101050.86
2017-07-21T05:55:52.461Z,101049.81
2017-07-21T05:58:25.061Z,101044.69
2017-07-21T06:00:57.554Z,101047.66
2017-07-21T06:03:29.906Z,101052.91
2017-07-21T06:06:02.569Z,101056.03
2017-07-21T06:08:34.798Z,101060.20
2017-07-21T06:11:07.146Z,101065.88
2017-07-21T06:13:39.503Z,101067.42
2017-07-21T06:16:11.823Z,101067.40
2017-07-21T06:18:44.268Z,101062.14
2017-07-21T06:21:16.618Z,101059.38
2017-07-21T06:23:49.130Z,101066.54
2017-07-21T06:26:21.486Z,101079.27
2017-07-21T06:28:53.818Z,101067.83
2017-07-21T06:31:26.213Z,101074.05
2017-07-21T06:33:58.630Z,101068.81
2017-07-21T06:36:30.969Z,101069.04
2017-07-21T06:39:03.577Z,101075.01
2017-07-21T06:41:35.972Z,101074.75
2017-07-21T06:44:08.400Z,101071.05
2017-07-21T06:46:40.766Z,101073.02
2017-07-21T06:49:20.144Z,101079.11
2017-07-21T06:51:52.545Z,101081.37
2017-07-21T06:54:24.979Z,101085.77
2017-07-21T06:56:57.401Z,101087.87
2017-07-21T06:59:29.813Z,101088.80
2017-07-21T07:02:02.095Z,101088.45
2017-07-21T07:04:34.507Z,101092.41
2017-07-21T07:07:06.862Z,101098.68
2017-07-21T07:09:39.330Z,101104.45
2017-07-21T07:12:11.525Z,101101.69
2017-07-21T07:14:44.026Z,101095.80
2017-07-21T07:17:16.398Z,101101.82
2017-07-21T07:19:48.850Z,101105.66
2017-07-21T07:22:21.252Z,101099.64
2017-07-21T07:24:53.663Z,101103.16
2017-07-21T07:27:27.016Z,101100.66
2017-07-21T07:29:59.525Z,101100.57
2017-07-21T07:32:31.953Z,101104.16
2017-07-21T07:35:04.489Z,101105.95
2017-07-21T07:37:36.917Z,101103.91
2017-07-21T07:40:09.396Z,101102.23
2017-07-21T07:42:41.646Z,101102.59
2017-07-21T07:45:14.075Z,101106.71
2017-07-21T07:47:46.420Z,101106.14
2017-07-21T07:50:18.693Z,101107.34
2017-07-21T07:52:51.069Z,101105.05
2017-07-21T07:55:23.553Z,101106.58
2017-07-21T07:57:55.953Z,101103.30
2017-07-21T08:00:28.278Z,101109.91
2017-07-21T08:03:00.702Z,101098.00
2017-07-21T08:05:33.071Z,101103.23
2017-07-21T08:08:05.412Z,101106.72
2017-07-21T08:10:37.814Z,101109.20
2017-07-21T08:13:10.153Z,101103.69
2017-07-21T08:15:42.657Z,101109.64
2017-07-21T08:18:15.085Z,101108.91
2017-07-21T08:20:47.520Z,101108.77
2017-07-21T08:23:19.853Z,101115.38
2017-07-21T08:25:52.301Z,101117.09
2017-07-21T08:28:24.688Z,101108.09
2017-07-21T08:30:57.214Z,101114.02
2017-07-21T08:33:29.539Z,101112.94
2017-07-21T08:36:02.125Z,101115.63
2017-07-21T08:38:34.538Z,101119.54
2017-07-21T08:41:06.698Z,101115.31
2017-07-21T08:43:39.093Z,101114.98
2017-07-21T08:46:11.525Z,101115.16
2017-07-21T08:48:44.014Z,101113.50
2017-07-21T08:51:17.581Z,101115.66
2017-07-21T08:53:49.673Z,101117.98
2017-07-21T08:56:22.040Z,101123.34
2017-07-21T08:58:54.279Z,101126.33
2017-07-21T09:01:26.714Z,101124.48
2017-07-21T09:03:59.042Z,101122.86
2017-07-21T09:06:31.444Z,101121.15
2017-07-21T09:09:03.922Z,101117.60
2017-07-21T09:11:36.345Z,101120.41
2017-07-21T09:14:08.628Z,101125.42
2017-07-21T09:16:41.051Z,101123.54
2017-07-21T09:19:13.528Z,101120.66
2017-07-21T09:21:45.992Z,101105.77
2017-07-21T09:24:18.442Z,101109.23
2017-07-21T09:26:50.724Z,101114.52
2017-07-21T09:29:23.116Z,101113.72
2017-07-21T09:31:55.581Z,101109.53
2017-07-21T09:34:28.088Z,101110.75
2017-07-21T09:37:00.532Z,101113.80
2017-07-21T09:39:32.849Z,101112.37
2017-07-21T09:42:05.288Z,101109.52
2017-07-21T09:44:37.606Z,101108.05
2017-07-21T09:47:10.085Z,101114.00
2017-07-21T09:49:42.366Z,101113.89
2017-07-21T09:52:14.834Z,101106.57
2017-07-21T09:54:47.029Z,101103.85
2017-07-21T09:57:19.445Z,101105.39
2017-07-21T09:59:51.995Z,101099.42
2017-07-21T10:02:24.385Z,101095.66
2017-07-21T10:04:56.803Z,101098.89
2017-07-21T10:07:29.097Z,101100.98
2017-07-21T10:10:01.378Z,101091.11
2017-07-21T10:12:33.729Z,101091.97
2017-07-21T10:15:06.225Z,101096.55
2017-07-21T10:17:38.649Z,101089.38
2017-07-21T10:20:11.009Z,101089.67
2017-07-21T10:22:43.415Z,101088.11
2017-07-21T10:25:15.592Z,101088.88
2017-07-21T10:27:47.955Z,101086.20
2017-07-21T10:30:20.353Z,101087.13
2017-07-21T10:32:52.757Z,101083.27
2017-07-21T10:35:25.081Z,101077.72
2017-07-21T10:37:57.566Z,101079.19
2017-07-21T10:40:29.995Z,101070.94
2017-07-21T10:43:02.681Z,101078.20
2017-07-21T10:45:34.917Z,101080.53
2017-07-21T10:48:07.312Z,101077.42
2017-07-21T10:50:39.602Z,101077.41
2017-07-21T10:53:12.062Z,101074.27
2017-07-21T10:55:44.593Z,101071.14
2017-07-21T10:58:16.942Z,101068.42
2017-07-21T11:00:49.097Z,101064.05
2017-07-21T11:03:21.494Z,101070.00
2017-07-21T11:05:53.821Z,101073.26
2017-07-21T11:08:26.198Z,101073.52
2017-07-21T11:10:58.509Z,101072.56
2017-07-21T11:13:30.752Z,101068.53
2017-07-21T11:16:02.954Z,101059.41
2017-07-21T11:18:35.217Z,101065.12
2017-07-21T11:21:07.551Z,101054.64
2017-07-21T11:23:40.017Z,101053.25
2017-07-21T11:26:12.393Z,101058.39
2017-07-21T11:28:44.836Z,101049.48
2017-07-21T11:31:17.225Z,101051.69
2017-07-21T11:33:49.542Z,101044.77
2017-07-21T11:36:21.885Z,101049.05
2017-07-21T11:38:54.165Z,101042.55
2017-07-21T11:41:26.430Z,101043.05
2017-07-21T11:43:58.882Z,101039.45
2017-07-21T11:46:31.137Z,101037.77
2017-07-21T11:49:03.403Z,101035.52
2017-07-21T11:51:36.131Z,101038.38
2017-07-21T11:54:08.046Z,101036.95
2017-07-21T11:56:40.241Z,101027.31
2017-07-21T11:59:12.538Z,101029.00
2017-07-21T12:01:45.145Z,101028.00
2017-07-21T12:04:17.504Z,101028.36
2017-07-21T12:06:49.684Z,101029.78
2017-07-21T12:09:22.023Z,101029.47
2017-07-21T12:11:54.416Z,101024.17
2017-07-21T12:14:26.565Z,101027.27
2017-07-21T12:16:58.826Z,101024.75
2017-07-21T12:19:31.188Z,101015.23
2017-07-21T12:22:03.456Z,101027.20
2017-07-21T12:24:35.852Z,101013.81
2017-07-21T12:27:08.188Z,101014.05
2017-07-21T12:29:40.601Z,101006.77
2017-07-21T12:32:12.898Z,101004.06
2017-07-21T12:34:45.317Z,101007.28
2017-07-21T12:37:17.662Z,101008.21
2017-07-21T12:39:49.946Z,101001.95
2017-07-21T12:42:22.328Z,101002.30
2017-07-21T12:44:54.646Z,101004.94
2017-07-21T12:47:26.881Z,101008.97
2017-07-21T12:49:59.280Z,101002.48
2017-07-21T12:52:31.641Z,100997.05
2017-07-21T12:55:04.156Z,101003.72
2017-07-21T12:57:36.558Z,101003.07
2017-07-21T13:00:09.069Z,100998.38
2017-07-21T13:02:41.338Z,101003.90
2017-07-21T13:05:13.729Z,101003.45
2017-07-21T13:07:46.070Z,100997.83
2017-07-21T13:10:18.478Z,100989.14
2017-07-21T13:12:50.805Z,100989.45
2017-07-21T13:15:23.322Z,100990.81
2017-07-21T13:17:55.561Z,100989.29
2017-07-21T13:20:27.986Z,100994.22
2017-07-21T13:23:00.299Z,100994.44
2017-07-21T13:25:32.713Z,100986.05
2017-07-21T13:28:04.977Z,100982.20
2017-07-21T13:30:37.644Z,100974.88
2017-07-21T13:33:09.685Z,100970.98
2017-07-21T13:35:42.106Z,100978.64
2017-07-21T13:38:14.284Z,100984.48
2017-07-21T13:40:46.589Z,100969.90
2017-07-21T13:43:19.022Z,100970.45
2017-07-21T13:45:51.372Z,100964.62
2017-07-21T13:48:23.640Z,100951.84
2017-07-21T13:50:56.159Z,100953.34
2017-07-21T13:53:28.501Z,100951.35
2017-07-21T13:56:00.808Z,100938.73
2017-07-21T13:58:33.074Z,100950.16
2017-07-21T14:01:05.320Z,100945.65
2017-07-21T14:03:37.582Z,100937.34
2017-07-21T14:06:09.901Z,100936.42
2017-07-21T14:08:42.241Z,100935.03
2017-07-21T14:11:14.543Z,100936.92
2017-07-21T14:13:46.808Z,100931.85
2017-07-21T14:16:19.054Z,100928.56
2017-07-21T14:18:51.306Z,100924.48
2017-07-21T14:21:23.658Z,100921.90
2017-07-21T14:23:55.938Z,100915.93
2017-07-21T14:26:28.358Z,100918.28
2017-07-21T14:29:00.605Z,100918.34
2017-07-21T14:34:30.339Z,100916.16
2017-07-21T14:37:02.702Z,100905.61
2017-07-21T14:39:35.051Z,100910.02
2017-07-21T14:42:07.461Z,100906.86
2017-07-21T14:44:39.744Z,100904.17
2017-07-21T14:47:12.104Z,100908.83
2017-07-21T14:49:44.489Z,100897.77
2017-07-21T14:52:16.856Z,100897.38
2017-07-21T14:54:49.204Z,100895.72
2017-07-21T14:57:21.577Z,100892.74
2017-07-21T14:59:53.820Z,100894.48
2017-07-21T15:02:26.232Z,100885.42
2017-07-21T15:04:58.612Z,100888.91
2017-07-21T15:07:31.005Z,100891.59
2017-07-21T15:10:03.288Z,100886.26
2017-07-21T15:12:35.686Z,100889.86
2017-07-21T15:15:07.967Z,100891.80
2017-07-21T15:17:40.196Z,100890.09
2017-07-21T15:20:12.448Z,100890.06
2017-07-21T15:22:45.007Z,100885.05
2017-07-21T15:25:17.031Z,100880.53
2017-07-21T15:27:49.452Z,100874.36
2017-07-21T15:30:22.000Z,100875.08
2017-07-21T15:32:54.499Z,100871.39
2017-07-21T15:35:26.852Z,100872.68
2017-07-21T15:37:59.257Z,100871.16
2017-07-21T15:40:31.708Z,100870.92
2017-07-21T15:43:04.100Z,100869.11
2017-07-21T15:45:36.456Z,100859.77
2017-07-21T15:48:09.018Z,100864.16
2017-07-21T15:50:41.300Z,100857.70
2017-07-21T15:53:13.727Z,100856.88
2017-07-21T15:55:46.201Z,100853.44
2017-07-21T15:58:18.748Z,100846.73
2017-07-21T16:00:51.212Z,100850.78
2017-07-21T16:03:23.601Z,100849.12
2017-07-21T16:05:55.936Z,100841.53
2017-07-21T16:08:28.376Z,100840.14
2017-07-21T16:11:00.736Z,100831.45
2017-07-21T16:13:33.068Z,100835.92
2017-07-21T16:16:05.428Z,100826.50
2017-07-21T16:18:37.852Z,100825.22
2017-07-21T16:21:10.192Z,100825.73
2017-07-21T16:23:42.705Z,100818.75
2017-07-21T16:26:15.249Z,100817.73
2017-07-21T16:28:47.743Z,100813.77
2017-07-21T16:31:20.204Z,100804.17
2017-07-21T16:33:52.704Z,100810.27
2017-07-21T16:36:25.036Z,100805.06
2017-07-21T16:38:57.436Z,100808.22
2017-07-21T16:41:29.690Z,100813.83
2017-07-21T16:44:02.196Z,100806.95
2017-07-21T16:46:34.740Z,100805.76
2017-07-21T16:49:07.354Z,100805.08
2017-07-21T16:51:40.233Z,100811.89
2017-07-21T16:54:12.329Z,100809.54
2017-07-21T16:56:44.977Z,100809.80
2017-07-21T16:59:17.147Z,100807.51
2017-07-21T17:01:49.526Z,100815.66
2017-07-21T17:04:21.936Z,100809.74
2017-07-21T17:06:54.360Z,100809.55
2017-07-21T17:09:26.666Z,100809.33
2017-07-21T17:11:59.013Z,100802.00
2017-07-21T17:14:31.272Z,100805.20
2017-07-21T17:17:03.640Z,100801.47
2017-07-21T17:19:36.124Z,100801.27
2017-07-21T17:22:08.525Z,100803.79
2017-07-21T17:27:38.740Z,100800.42
2017-07-21T17:30:11.115Z,100802.30
2017-07-21T17:32:43.447Z,100799.95
2017-07-21T17:35:15.741Z,100799.66
2017-07-21T17:37:48.023Z,100797.69
2017-07-21T17:40:20.586Z,100799.78
2017-07-21T17:42:53.065Z,100792.98
2017-07-21T17:45:25.555Z,100799.86
2017-07-21T17:47:57.984Z,100790.32
2017-07-21T17:50:30.459Z,100784.08
2017-07-21T17:53:02.759Z,100784.20
2017-07-21T17:55:35.201Z,100781.58
2017-07-21T17:58:07.548Z,100783.29
2017-07-21T18:00:39.944Z,100783.52
2017-07-21T18:03:12.343Z,100787.03
2017-07-21T18:05:44.807Z,100791.08
2017-07-21T18:08:17.109Z,100789.05
2017-07-21T18:10:49.684Z,100780.03
2017-07-21T18:13:22.036Z,100773.23
2017-07-21T18:15:54.520Z,100777.91
2017-07-21T18:18:26.815Z,100781.19
2017-07-21T18:20:59.271Z,100781.95
2017-07-21T18:23:31.879Z,100778.51
2017-07-21T18:26:04.017Z,100778.27
2017-07-21T18:28:36.300Z,100780.16
2017-07-21T18:31:08.798Z,100783.25
2017-07-21T18:33:41.135Z,100779.21
2017-07-21T18:36:13.599Z,100770.51
2017-07-21T18:38:46.051Z,100786.99
2017-07-21T18:41:18.511Z,100790.34
2017-07-21T18:43:50.876Z,100790.83
2017-07-21T18:46:23.352Z,100792.41
2017-07-21T18:48:55.827Z,100791.52
2017-07-21T18:51:28.302Z,100788.83
2017-07-21T18:54:00.662Z,100798.48
2017-07-21T18:56:33.171Z,100792.31
2017-07-21T18:59:05.656Z,100796.07
2017-07-21T19:01:37.935Z,100798.99
2017-07-21T19:04:10.260Z,100792.14
2017-07-21T19:06:42.732Z,100798.00
2017-07-21T19:09:15.019Z,100796.70
2017-07-21T19:11:47.483Z,100798.84
2017-07-21T19:14:19.915Z,100801.00
2017-07-21T19:16:52.420Z,100811.55
2017-07-21T19:19:24.819Z,100817.63
2017-07-21T19:21:57.281Z,100828.36
2017-07-21T19:24:30.151Z,100823.81
2017-07-21T19:27:02.160Z,100834.54
2017-07-21T19:29:34.600Z,100840.67
2017-07-21T19:32:07.047Z,100840.34
2017-07-21T19:34:39.365Z,100849.66
2017-07-21T19:37:11.915Z,100844.91
2017-07-21T19:39:44.142Z,100852.20
2017-07-21T19:42:16.647Z,100848.95
2017-07-21T19:44:49.059Z,100850.65
2017-07-21T19:47:21.611Z,100853.62
2017-07-21T19:49:53.976Z,100848.78
2017-07-21T19:52:26.439Z,100852.28
2017-07-21T19:54:58.868Z,100858.23
2017-07-21T19:57:31.352Z,100856.58
2017-07-21T20:00:03.533Z,100861.69
2017-07-21T20:02:35.925Z,100854.72
2017-07-21T20:05:08.166Z,100850.94
2017-07-21T20:07:40.515Z,100846.30
2017-07-21T20:10:12.868Z,100846.66
2017-07-21T20:12:45.556Z,100848.66
2017-07-21T20:15:17.968Z,100850.30
2017-07-21T20:17:50.452Z,100851.91
2017-07-21T20:20:22.775Z,100849.70
2017-07-21T20:22:55.287Z,100855.05
2017-07-21T20:25:27.514Z,100853.94
2017-07-21T20:27:59.906Z,100845.23
2017-07-21T20:30:32.339Z,100852.75
2017-07-21T20:33:05.508Z,100856.28
2017-07-21T20:35:38.047Z,100854.73
2017-07-21T20:38:10.444Z,100849.17
2017-07-21T20:40:42.688Z,100849.91
2017-07-21T20:43:15.079Z,100844.77
2017-07-21T20:45:47.327Z,100838.55
2017-07-21T20:48:26.750Z,100836.50
2017-07-21T20:50:59.092Z,100842.70
2017-07-21T20:53:31.528Z,100839.63
2017-07-21T20:56:03.671Z,100836.42
2017-07-21T20:58:36.099Z,100833.79
2017-07-21T21:01:08.512Z,100831.73
2017-07-21T21:03:41.013Z,100831.92
2017-07-21T21:06:13.140Z,100827.23
2017-07-21T21:08:45.524Z,100825.96
2017-07-21T21:11:17.767Z,100820.98
2017-07-21T21:13:50.115Z,100812.75
2017-07-21T21:16:22.427Z,100817.88
2017-07-21T21:18:54.797Z,100821.23
2017-07-21T21:21:27.147Z,100831.36
2017-07-21T21:23:59.515Z,100837.44
2017-07-21T21:26:31.924Z,100838.88
2017-07-21T21:29:04.391Z,100841.36
2017-07-21T21:31:36.423Z,100840.42
2017-07-21T21:34:08.796Z,100843.27
2017-07-21T21:36:41.139Z,100825.23
2017-07-21T21:39:13.477Z,100825.17
2017-07-21T21:41:45.804Z,100827.83
2017-07-21T21:44:18.184Z,100828.77
2017-07-21T21:46:50.419Z,100825.54
2017-07-21T21:49:22.816Z,100825.00
2017-07-21T21:51:55.063Z,100831.33
2017-07-21T21:54:27.467Z,100819.78
2017-07-21T21:56:59.920Z,100807.95
2017-07-21T21:59:32.326Z,100795.06
2017-07-21T22:02:04.701Z,100794.80
2017-07-21T22:04:37.183Z,100798.20
2017-07-21T22:07:09.448Z,100794.62
2017-07-21T22:09:41.743Z,100779.44
2017-07-21T22:12:14.112Z,100788.31
2017-07-21T22:14:46.540Z,100794.44
2017-07-21T22:17:18.972Z,100803.39
2017-07-21T22:19:51.389Z,100802.03
2017-07-21T22:22:23.872Z,100798.86
2017-07-21T22:24:56.284Z,100813.01
2017-07-21T22:27:28.516Z,100802.37
2017-07-21T22:30:00.687Z,100799.99
2017-07-21T22:32:32.884Z,100797.16
2017-07-21T22:35:05.148Z,100798.86
2017-07-21T22:37:37.487Z,100801.59
2017-07-21T22:40:09.996Z,100803.70
2017-07-21T22:42:42.065Z,100794.97
2017-07-21T22:45:14.365Z,100797.00
2017-07-21T22:47:46.503Z,100799.20
2017-07-21T22:50:18.998Z,100801.67
2017-07-21T22:52:51.331Z,100796.56
2017-07-21T22:55:23.600Z,100802.47
2017-07-21T22:57:56.114Z,100807.44
2017-07-21T23:00:28.327Z,100807.75
2017-07-21T23:03:00.608Z,100809.11
2017-07-21T23:05:33.169Z,100805.60
2017-07-21T23:08:05.486Z,100808.30
2017-07-21T23:10:37.933Z,100802.92
2017-07-21T23:13:10.447Z,100803.63
2017-07-21T23:15:42.796Z,100809.79
2017-07-21T23:18:15.184Z,100817.05
2017-07-21T23:20:47.493Z,100810.49
2017-07-21T23:23:19.805Z,100807.54
2017-07-21T23:25:52.216Z,100796.64
2017-07-21T23:28:24.551Z,100797.48
2017-07-21T23:30:56.931Z,100802.53
2017-07-21T23:33:29.276Z,100797.30
2017-07-21T23:36:01.673Z,100810.00
2017-07-21T23:38:34.176Z,100804.91
2017-07-21T23:41:06.459Z,100804.15
2017-07-21T23:43:38.787Z,100804.81
2017-07-21T23:46:11.153Z,100797.69
2017-07-21T23:48:43.680Z,100808.81
2017-07-21T23:51:16.007Z,100812.69
2017-07-21T23:53:48.435Z,100811.85
2017-07-21T23:56:20.827Z,100806.75
2017-07-21T23:58:53.240Z,100803.59
